Ayr, ND

3:40 AM CDT on July 14, 2014 (GMT -0500)
Home of the Absaraka Crows (KNDABSAR2) Elev 1066 ft | 46.98 °N, 97.39 °W | Change Station

Current weather conditions updated 9 seconds ago

Overcast
Overcast
56.8 °F
Feels Like 56.8 °F
N
9.2
Wind Variable Wind from North
Gusts 11.4 mph

Today is forecast to be Cooler than yesterday.

Today
High -- | Low -- °F
--% Chance of Precip.
Yesterday
High -- | Low -- °F
Precip. -- in
5:49 AM 9:22 PM
Waning Gibbous, 95% visible
Pressure 30.04 in
Visibility 10.0 miles
Clouds Mostly Cloudy 3000 ft
Mostly Cloudy 3500 ft
Overcast 5000 ft
Dew Point 47 °F
Humidity 70%
Rainfall 0.00 in
Snow Depth Not available.
UV 0 out of 12
Pollen 4.70 out of 12
Air Quality Not available.
Flu Activity Sporadic
METAR KBAC 140835Z AUTO 34015G20KT 10SM BKN030 BKN035 OVC050 14/09 A3004 RMK AO2

More Conditions Fewer Conditions

Pressure 30.04 in
Visibility 10.0 miles
Clouds Mostly Cloudy 3000 ft
Mostly Cloudy 3500 ft
Overcast 5000 ft
Dew Point 47 °F
Humidity 70%
Rainfall 0.00 in
Snow Depth Not available.
UV 0 out of 12
Pollen 4.70 out of 12
Air Quality Not available.
Flu Activity Sporadic
METAR KBAC 140835Z AUTO 34015G20KT 10SM BKN030 BKN035 OVC050 14/09 A3004 RMK AO2

More Conditions Fewer Conditions

10-Day Weather Forecast

Almanac

Astronomy

Jul. 14, 2014 Rise Set
Actual Time 5:49 AM CDT 9:22 PM CDT
Civil Twilight 5:11 AM CDT 10:00 PM CDT
Nautical Twilight 4:20 AM CDT 10:51 PM CDT
Astronomical Twilight 3:11 AM CDT 11:58 PM CDT
Moon 10:36 PM CDT 8:47 AM CDT
Length of Visible Light 16h 49m
Length of Day
15h 32m
Tomorrow will be 1m 47s shorter.
Waning Gibbous, 95% of the Moon is Illuminated
Today
Waning Gibbous
Jul 18
Last Quarter
Jul 26
New
Aug 3
First Quarter
Aug 10
Full

Today's Extremes

State Highs State Lows

Community

WunderPhotos

Upload Photos

1,733,585 photos uploaded!

Nearby

Snow Depth

Station Depth Elevation
No new snow has been reported.

Earthquake Activity

City Distance Mag. Time & Date
No recent earthquake activity has been reported nearby.
Minimum magnitude displayed is 2.5.

Coastal Water Temperatures

Place Temperature
No Stations Reporting

Nearby Weather Stations

Station Location Temp. Dew Point Humidity Wind Precip. Elev Updated Type
NDDOT Buffalo ND 38 MP 10, Ayr, ND 59 °F 41 °F 52% NNW  at  17 mph 0.00 in / hr 1437 ft 2:10 AM CDT MADIS
Home of the Absaraka Crows, Absaraka, ND 56.8 °F 47 °F 70% North  at  9.2 mph 0.00 in / hr 1066 ft 3:39 AM CDT Rapid Fire
Valley City State University, Valley City, ND 58.5 °F - 68% NW  at  6.0 mph 0.00 in / hr 1220 ft 3:31 AM CDT Normal

Show More Stations Show Fewer Stations